createdAt,value
2018-07-05T00:00:22.061Z,2.57
2018-07-05T00:03:02.237Z,2.80
2018-07-05T00:05:42.422Z,2.53
2018-07-05T00:08:22.644Z,2.60
2018-07-05T00:11:02.790Z,2.80
2018-07-05T00:13:42.897Z,2.50
2018-07-05T00:16:23.205Z,2.57
2018-07-05T00:19:03.351Z,2.50
2018-07-05T00:21:43.578Z,2.60
2018-07-05T00:24:23.783Z,2.63
2018-07-05T00:27:05.126Z,2.73
2018-07-05T00:29:45.157Z,2.67
2018-07-05T00:32:25.410Z,2.63
2018-07-05T00:35:05.626Z,2.50
2018-07-05T00:37:46.504Z,2.30
2018-07-05T00:40:27.387Z,2.50
2018-07-05T00:43:08.374Z,2.37
2018-07-05T00:45:48.306Z,2.40
2018-07-05T00:48:29.106Z,2.83
2018-07-05T00:51:09.386Z,2.70
2018-07-05T00:53:49.571Z,3.07
2018-07-05T00:56:30.418Z,3.10
2018-07-05T00:59:10.578Z,2.90
2018-07-05T01:01:50.726Z,2.63
2018-07-05T01:04:31.070Z,2.70
2018-07-05T01:07:11.134Z,2.97
2018-07-05T01:09:51.324Z,2.83
2018-07-05T01:12:32.206Z,2.77
2018-07-05T01:15:12.341Z,2.60
2018-07-05T01:17:53.203Z,2.80
2018-07-05T01:20:33.483Z,3.10
2018-07-05T01:23:13.801Z,2.67
2018-07-05T01:25:54.711Z,2.60
2018-07-05T01:28:35.629Z,2.53
2018-07-05T01:31:15.907Z,2.97
2018-07-05T01:33:56.043Z,2.23
2018-07-05T01:36:36.192Z,3.00
2018-07-05T01:39:16.274Z,3.00
2018-07-05T01:41:56.530Z,3.00
2018-07-05T01:44:36.542Z,2.70
2018-07-05T01:47:16.703Z,2.70
2018-07-05T01:49:56.879Z,3.00
2018-07-05T01:52:37.083Z,3.17
2018-07-05T01:55:17.362Z,2.80
2018-07-05T01:57:57.497Z,3.17
2018-07-05T02:00:37.698Z,2.80
2018-07-05T02:03:17.855Z,3.10
2018-07-05T02:05:58.107Z,2.93
2018-07-05T02:08:38.323Z,2.70
2018-07-05T02:11:18.541Z,3.00
2018-07-05T02:13:59.487Z,3.03
2018-07-05T02:16:39.774Z,2.83
2018-07-05T02:19:21.098Z,3.10
2018-07-05T02:22:01.824Z,3.13
2018-07-05T02:24:42.727Z,3.20
2018-07-05T02:27:22.817Z,3.27
2018-07-05T02:30:03.085Z,3.07
2018-07-05T02:32:43.340Z,2.77
2018-07-05T02:35:23.764Z,3.30
2018-07-05T02:38:04.046Z,2.97
2018-07-05T02:40:44.086Z,2.80
2018-07-05T02:43:24.450Z,2.97
2018-07-05T02:46:05.187Z,2.83
2018-07-05T02:48:46.143Z,3.17
2018-07-05T02:51:26.325Z,3.33
2018-07-05T02:54:06.338Z,3.23
2018-07-05T02:56:46.563Z,3.30
2018-07-05T02:59:26.918Z,3.20
2018-07-05T03:02:07.059Z,2.97
2018-07-05T03:04:47.249Z,2.97
2018-07-05T03:07:28.237Z,3.30
2018-07-05T03:10:08.498Z,3.60
2018-07-05T03:12:48.707Z,3.30
2018-07-05T03:15:28.755Z,3.20
2018-07-05T03:18:08.916Z,2.93
2018-07-05T03:20:51.560Z,3.40
2018-07-05T03:23:31.839Z,3.03
2018-07-05T03:26:12.014Z,2.97
2018-07-05T03:28:52.203Z,3.10
2018-07-05T03:31:33.075Z,3.10
2018-07-05T03:34:13.937Z,3.10
2018-07-05T03:36:54.110Z,3.10
2018-07-05T03:39:34.953Z,3.20
2018-07-05T03:42:15.065Z,3.57
2018-07-05T03:44:55.295Z,3.33
2018-07-05T03:47:35.446Z,3.40
2018-07-05T03:50:15.635Z,3.40
2018-07-05T03:52:55.926Z,3.40
2018-07-05T03:55:36.183Z,3.20
2018-07-05T03:58:16.474Z,3.30
2018-07-05T04:00:56.763Z,3.63
2018-07-05T04:03:36.881Z,3.73
2018-07-05T04:06:17.114Z,3.33
2018-07-05T04:08:58.063Z,3.67
2018-07-05T04:11:38.257Z,3.27
2018-07-05T04:14:19.166Z,3.60
2018-07-05T04:16:59.390Z,3.30
2018-07-05T04:19:39.790Z,3.73
2018-07-05T04:22:20.582Z,3.97
2018-07-05T04:25:00.705Z,3.20
2018-07-05T04:27:40.906Z,3.87
2018-07-05T04:30:21.914Z,3.40
2018-07-05T04:33:01.991Z,3.60
2018-07-05T04:35:42.152Z,3.73
2018-07-05T04:38:22.883Z,4.20
2018-07-05T04:41:02.950Z,4.27
2018-07-05T04:43:43.120Z,4.23
2018-07-05T04:46:23.126Z,4.60
2018-07-05T04:49:03.371Z,4.70
2018-07-05T04:51:44.205Z,4.63
2018-07-05T04:54:24.400Z,4.63
2018-07-05T04:57:05.171Z,4.33
2018-07-05T04:59:45.406Z,4.30
2018-07-05T05:02:25.973Z,4.60
2018-07-05T05:05:06.894Z,4.47
2018-07-05T05:07:46.607Z,4.33
2018-07-05T05:10:27.446Z,4.87
2018-07-05T05:13:07.670Z,4.10
2018-07-05T05:15:47.925Z,4.07
2018-07-05T05:18:28.102Z,4.10
2018-07-05T05:21:08.110Z,4.07
2018-07-05T05:23:48.216Z,4.07
2018-07-05T05:26:28.443Z,3.93
2018-07-05T05:29:08.616Z,3.80
2018-07-05T05:31:48.775Z,3.33
2018-07-05T05:34:29.082Z,3.67
2018-07-05T05:37:09.171Z,3.40
2018-07-05T05:39:49.225Z,3.80
2018-07-05T05:42:29.354Z,3.70
2018-07-05T05:45:09.467Z,3.77
2018-07-05T05:47:50.313Z,3.57
2018-07-05T05:50:30.506Z,3.80
2018-07-05T05:53:10.539Z,3.43
2018-07-05T05:55:51.404Z,3.60
2018-07-05T05:58:32.373Z,3.67
2018-07-05T06:01:12.387Z,3.87
2018-07-05T06:03:52.560Z,3.67
2018-07-05T06:06:32.854Z,3.40
2018-07-05T06:09:13.345Z,3.90
2018-07-05T06:11:54.163Z,3.53
2018-07-05T06:14:35.098Z,3.03
2018-07-05T06:17:15.127Z,3.53
2018-07-05T06:19:55.427Z,3.23
2018-07-05T06:22:35.606Z,3.60
2018-07-05T06:25:16.572Z,3.43
2018-07-05T06:27:56.710Z,3.13
2018-07-05T06:30:36.865Z,3.67
2018-07-05T06:33:17.026Z,3.30
2018-07-05T06:35:57.191Z,3.20
2018-07-05T06:38:38.170Z,2.97
2018-07-05T06:41:19.155Z,3.07
2018-07-05T06:43:59.159Z,3.13
2018-07-05T06:46:39.395Z,2.90
2018-07-05T06:49:19.597Z,3.60
2018-07-05T06:51:59.711Z,2.87
2018-07-05T06:54:40.314Z,3.33
2018-07-05T06:57:21.045Z,3.47
2018-07-05T07:00:01.373Z,3.57
2018-07-05T07:02:41.637Z,3.70
2018-07-05T07:05:22.095Z,4.03
2018-07-05T07:08:02.214Z,3.93
2018-07-05T07:10:42.563Z,3.70
2018-07-05T07:13:22.654Z,4.00
2018-07-05T07:16:02.838Z,4.13
2018-07-05T07:18:42.904Z,4.33
2018-07-05T07:21:23.185Z,4.63
2018-07-05T07:24:03.354Z,5.57
2018-07-05T07:26:43.706Z,5.57
2018-07-05T07:29:24.482Z,6.07
2018-07-05T07:32:04.667Z,6.00
2018-07-05T07:34:44.823Z,5.20
2018-07-05T07:37:24.951Z,5.40
2018-07-05T07:40:05.547Z,4.93
2018-07-05T07:42:33.322Z,5.80
2018-07-05T07:45:01.091Z,5.80
2018-07-05T07:47:29.075Z,6.07
2018-07-05T07:49:56.839Z,6.00
2018-07-05T07:52:24.596Z,6.47
2018-07-05T07:54:52.373Z,6.27
2018-07-05T07:57:20.897Z,6.50
2018-07-05T07:59:48.899Z,7.13
2018-07-05T08:02:16.663Z,7.03
2018-07-05T08:04:44.571Z,7.37
2018-07-05T08:07:12.326Z,7.90
2018-07-05T08:09:40.096Z,7.83
2018-07-05T08:12:07.882Z,8.30
2018-07-05T08:14:35.641Z,7.70
2018-07-05T08:17:03.417Z,7.30
2018-07-05T08:19:31.178Z,8.20
2018-07-05T08:21:59.051Z,7.87
2018-07-05T08:24:27.025Z,8.10
2018-07-05T08:26:54.798Z,7.73
2018-07-05T08:29:22.575Z,7.53
2018-07-05T08:31:50.335Z,6.80
2018-07-05T08:34:18.254Z,7.83
2018-07-05T08:36:46.028Z,7.70
2018-07-05T08:39:13.787Z,7.50
2018-07-05T08:41:41.566Z,7.47
2018-07-05T08:44:09.326Z,8.10
2018-07-05T08:46:37.115Z,7.50
2018-07-05T08:49:04.870Z,6.80
2018-07-05T08:51:32.639Z,7.03
2018-07-05T08:54:00.400Z,6.83
2018-07-05T08:56:28.197Z,7.03
2018-07-05T08:58:56.730Z,7.20
2018-07-05T09:01:24.494Z,7.40
2018-07-05T09:03:52.257Z,7.50
2018-07-05T09:06:20.030Z,7.43
2018-07-05T09:08:48.191Z,8.03
2018-07-05T09:11:15.968Z,7.37
2018-07-05T09:13:43.717Z,8.40
2018-07-05T09:16:11.491Z,7.97
2018-07-05T09:18:39.250Z,8.63
2018-07-05T09:21:07.030Z,7.50
2018-07-05T09:23:36.363Z,8.00
2018-07-05T09:26:04.359Z,7.40
2018-07-05T09:28:32.120Z,7.63
2018-07-05T09:30:59.883Z,7.43
2018-07-05T09:33:27.655Z,7.77
2018-07-05T09:35:55.427Z,7.90
2018-07-05T09:38:23.199Z,7.33
2018-07-05T09:40:50.979Z,7.00
2018-07-05T09:43:19.502Z,6.73
2018-07-05T09:45:47.268Z,6.97
2018-07-05T09:48:15.803Z,6.43
2018-07-05T09:50:43.555Z,5.87
2018-07-05T09:53:12.195Z,5.47
2018-07-05T09:55:39.954Z,5.17
2018-07-05T09:58:08.557Z,5.20
2018-07-05T10:00:36.231Z,5.67
2018-07-05T10:03:04.003Z,6.00
2018-07-05T10:05:31.765Z,5.87
2018-07-05T10:07:59.518Z,5.63
2018-07-05T10:10:27.288Z,6.00
2018-07-05T10:12:55.059Z,6.00
2018-07-05T10:15:22.823Z,5.70
2018-07-05T10:17:50.572Z,6.00
2018-07-05T10:20:18.339Z,5.50
2018-07-05T10:22:46.096Z,5.13
2018-07-05T10:25:13.851Z,5.20
2018-07-05T10:27:41.613Z,4.80
2018-07-05T10:30:21.583Z,5.33
2018-07-05T10:33:01.992Z,5.13
2018-07-05T10:35:30.531Z,5.23
2018-07-05T10:37:58.312Z,5.30
2018-07-05T10:40:38.333Z,5.50
2018-07-05T10:43:18.536Z,5.97
2018-07-05T10:45:59.405Z,5.50
2018-07-05T10:48:39.514Z,5.50
2018-07-05T10:51:19.476Z,6.43
2018-07-05T10:53:59.647Z,5.40
2018-07-05T10:56:39.883Z,5.20
2018-07-05T10:59:20.027Z,4.83
2018-07-05T11:02:00.165Z,4.67
2018-07-05T11:04:40.450Z,4.43
2018-07-05T11:07:20.665Z,5.30
2018-07-05T11:10:01.495Z,4.00
2018-07-05T11:12:41.719Z,3.70
2018-07-05T11:15:21.986Z,3.73
2018-07-05T11:18:02.783Z,3.60
2018-07-05T11:20:42.970Z,3.50
2018-07-05T11:23:23.051Z,3.30
2018-07-05T11:26:03.330Z,3.90
2018-07-05T11:28:43.470Z,3.70
2018-07-05T11:31:23.515Z,3.83
2018-07-05T11:34:03.808Z,4.00
2018-07-05T11:36:43.956Z,3.30
2018-07-05T11:39:24.171Z,3.77
2018-07-05T11:42:04.522Z,3.60
2018-07-05T11:44:44.639Z,3.70
2018-07-05T11:47:25.502Z,3.80
2018-07-05T11:50:06.286Z,3.60
2018-07-05T11:52:46.523Z,3.60
2018-07-05T11:55:27.366Z,3.57
2018-07-05T11:58:07.596Z,3.43
2018-07-05T12:00:47.735Z,3.97
2018-07-05T12:03:27.858Z,3.67
2018-07-05T12:06:08.802Z,3.77
2018-07-05T12:08:48.974Z,3.90
2018-07-05T12:11:29.131Z,4.00
2018-07-05T12:14:09.322Z,4.40
2018-07-05T12:16:49.490Z,4.70
2018-07-05T12:19:29.469Z,4.43
2018-07-05T12:22:09.695Z,5.33
2018-07-05T12:24:50.125Z,4.73
2018-07-05T12:27:31.057Z,4.90
2018-07-05T12:30:11.263Z,4.43
2018-07-05T12:32:51.411Z,4.37
2018-07-05T12:35:31.783Z,5.07
2018-07-05T12:38:11.870Z,4.70
2018-07-05T12:40:52.059Z,4.70
2018-07-05T12:43:32.895Z,4.63
2018-07-05T12:46:13.130Z,4.23
2018-07-05T12:48:53.308Z,4.80
2018-07-05T12:51:33.428Z,4.70
2018-07-05T12:54:13.611Z,5.67
2018-07-05T12:56:53.936Z,4.77
2018-07-05T12:59:34.020Z,5.20
2018-07-05T13:02:18.850Z,4.90
2018-07-05T13:05:00.082Z,5.10
2018-07-05T13:07:40.400Z,4.90
2018-07-05T13:10:20.498Z,4.93
2018-07-05T13:13:01.487Z,4.33
2018-07-05T13:15:42.355Z,4.83
2018-07-05T13:18:23.316Z,4.87
2018-07-05T13:21:04.271Z,4.83
2018-07-05T13:23:44.379Z,5.10
2018-07-05T13:26:24.663Z,4.60
2018-07-05T13:29:05.441Z,4.20
2018-07-05T13:31:45.597Z,4.43
2018-07-05T13:34:25.674Z,4.77
2018-07-05T13:37:06.592Z,4.30
2018-07-05T13:39:46.881Z,4.93
2018-07-05T13:42:27.003Z,4.27
2018-07-05T13:45:07.193Z,4.17
2018-07-05T13:47:47.428Z,4.67
2018-07-05T13:50:27.627Z,4.37
2018-07-05T13:53:08.913Z,4.40
2018-07-05T13:55:48.977Z,4.40
2018-07-05T13:58:29.181Z,4.47
2018-07-05T14:01:09.555Z,4.83
2018-07-05T14:03:49.722Z,4.60
2018-07-05T14:06:30.494Z,4.17
2018-07-05T14:09:11.500Z,4.43
2018-07-05T14:11:51.802Z,4.20
2018-07-05T14:14:31.995Z,3.67
2018-07-05T14:17:12.240Z,3.77
2018-07-05T14:19:52.389Z,4.27
2018-07-05T14:22:33.491Z,4.23
2018-07-05T14:25:13.484Z,4.20
2018-07-05T14:27:53.632Z,4.60
2018-07-05T14:30:34.433Z,4.30
2018-07-05T14:33:15.413Z,4.10
2018-07-05T14:35:56.276Z,4.30
2018-07-05T14:38:37.195Z,4.70
2018-07-05T14:41:17.459Z,5.00
2018-07-05T14:43:57.755Z,4.70
2018-07-05T14:46:38.427Z,5.10
2018-07-05T14:49:19.291Z,4.83
2018-07-05T14:52:00.247Z,5.00
2018-07-05T14:54:40.622Z,4.60
2018-07-05T14:57:21.682Z,5.00
2018-07-05T15:00:01.714Z,4.93
2018-07-05T15:02:41.785Z,4.73
2018-07-05T15:05:21.811Z,4.67
2018-07-05T15:08:02.682Z,5.03
2018-07-05T15:10:43.075Z,4.77
2018-07-05T15:13:23.334Z,5.63
2018-07-05T15:16:04.372Z,5.50
2018-07-05T15:18:44.469Z,4.70
2018-07-05T15:21:24.427Z,4.57
2018-07-05T15:24:05.254Z,4.57
2018-07-05T15:26:45.447Z,5.10
2018-07-05T15:29:26.362Z,5.30
2018-07-05T15:32:06.509Z,5.27
2018-07-05T15:34:46.923Z,4.97
2018-07-05T15:37:27.969Z,4.90
2018-07-05T15:40:08.174Z,4.70
2018-07-05T15:42:48.553Z,4.83
2018-07-05T15:45:28.563Z,4.57
2018-07-05T15:48:09.593Z,4.93
2018-07-05T15:50:49.788Z,4.80
2018-07-05T15:53:30.538Z,4.33
2018-07-05T15:56:11.495Z,4.57
2018-07-05T15:58:52.713Z,4.57
2018-07-05T16:01:33.479Z,4.30
2018-07-05T16:04:14.358Z,4.07
2018-07-05T16:06:55.148Z,4.30
2018-07-05T16:09:35.305Z,4.43
2018-07-05T16:12:15.589Z,3.93
2018-07-05T16:14:56.674Z,3.90
2018-07-05T16:17:36.723Z,3.53
2018-07-05T16:20:16.943Z,3.27
2018-07-05T16:22:57.059Z,3.33
2018-07-05T16:25:38.192Z,3.17
2018-07-05T16:28:18.234Z,3.00
2018-07-05T16:30:58.439Z,2.70
2018-07-05T16:33:39.366Z,2.70
2018-07-05T16:36:19.808Z,2.70
2018-07-05T16:38:59.763Z,3.10
2018-07-05T16:41:40.083Z,3.40
2018-07-05T16:44:20.886Z,3.63
2018-07-05T16:47:01.205Z,4.00
2018-07-05T16:49:41.241Z,3.93
2018-07-05T16:52:24.685Z,4.17
2018-07-05T16:55:05.510Z,4.20
2018-07-05T16:57:45.776Z,4.30
2018-07-05T17:00:26.023Z,4.17
2018-07-05T17:03:07.083Z,3.73
2018-07-05T17:08:57.451Z,3.77
2018-07-05T17:11:37.574Z,3.70
2018-07-05T17:14:18.547Z,3.37
2018-07-05T17:16:58.700Z,3.67
2018-07-05T17:19:38.816Z,3.77
2018-07-05T17:22:19.277Z,3.10
2018-07-05T17:24:59.622Z,3.50
2018-07-05T17:27:39.624Z,3.03
2018-07-05T17:30:20.678Z,3.40
2018-07-05T17:33:00.756Z,3.40
2018-07-05T17:38:47.764Z,2.87
2018-07-05T17:41:28.695Z,3.17
2018-07-05T17:44:08.942Z,2.93
2018-07-05T17:46:49.155Z,3.20
2018-07-05T17:49:29.215Z,2.97
2018-07-05T18:33:16.761Z,4.43
2018-07-05T18:35:56.984Z,4.30
2018-07-05T18:38:37.007Z,3.93
2018-07-05T18:41:17.169Z,4.30
2018-07-05T18:43:57.229Z,4.40
2018-07-05T18:46:37.721Z,4.03
2018-07-05T18:49:18.403Z,3.83
2018-07-05T18:51:58.496Z,3.70
2018-07-05T18:54:38.525Z,4.17
2018-07-05T18:57:18.439Z,3.53
2018-07-05T18:59:58.674Z,4.30
2018-07-05T19:02:39.539Z,3.70
2018-07-05T19:05:19.655Z,4.00
2018-07-05T19:07:59.747Z,3.67
2018-07-05T19:10:41.960Z,3.97
2018-07-05T19:16:30.479Z,4.30
2018-07-05T19:19:21.301Z,3.57
2018-07-05T19:25:17.710Z,3.57
2018-07-05T19:28:03.840Z,3.57
2018-07-05T19:30:50.179Z,3.43
2018-07-05T19:33:36.199Z,3.50
2018-07-05T19:36:23.042Z,3.10
2018-07-05T19:39:09.222Z,3.07
2018-07-05T19:41:55.395Z,3.10
2018-07-05T19:44:41.463Z,3.33
2018-07-05T19:47:27.622Z,3.13
2018-07-05T19:50:13.833Z,2.90
2018-07-05T19:53:00.798Z,3.10
2018-07-05T19:55:40.850Z,3.20
2018-07-05T19:58:20.935Z,3.03
2018-07-05T20:01:01.686Z,2.83
2018-07-05T20:03:41.721Z,3.10
2018-07-05T20:06:21.928Z,2.77
2018-07-05T20:09:02.634Z,3.13
2018-07-05T20:11:42.698Z,3.10
2018-07-05T20:14:22.793Z,3.10
2018-07-05T20:17:03.504Z,2.87
2018-07-05T20:19:43.649Z,3.10
2018-07-05T20:22:23.768Z,2.80
2018-07-05T20:25:03.895Z,2.70
2018-07-05T20:27:43.980Z,2.67
2018-07-05T20:30:24.058Z,2.87
2018-07-05T20:33:04.145Z,2.67
2018-07-05T20:35:44.211Z,2.63
2018-07-05T20:38:24.255Z,2.80
2018-07-05T20:41:04.222Z,3.10
2018-07-05T20:43:45.079Z,2.73
2018-07-05T20:46:24.975Z,2.70
2018-07-05T20:49:05.049Z,2.77
2018-07-05T20:51:44.920Z,2.87
2018-07-05T20:54:24.999Z,2.40
2018-07-05T20:57:05.062Z,2.87
2018-07-05T20:59:45.842Z,2.87
2018-07-05T21:02:25.782Z,2.80
2018-07-05T21:05:05.930Z,2.63
2018-07-05T21:07:46.002Z,2.90
2018-07-05T21:10:26.108Z,2.70
2018-07-05T21:13:06.921Z,2.50
2018-07-05T21:15:47.017Z,2.70
2018-07-05T21:18:27.046Z,2.73
2018-07-05T21:21:07.097Z,2.80
2018-07-05T21:23:47.261Z,3.17
2018-07-05T21:26:27.621Z,2.57
2018-07-05T21:29:07.723Z,2.73
2018-07-05T21:31:47.928Z,2.90
2018-07-05T21:34:28.087Z,3.10
2018-07-05T21:37:08.253Z,2.90
2018-07-05T21:39:49.424Z,2.80
2018-07-05T21:42:29.614Z,2.57
2018-07-05T21:45:09.805Z,2.97
2018-07-05T21:47:49.915Z,2.90
2018-07-05T21:50:30.155Z,2.87
2018-07-05T21:53:10.963Z,2.60
2018-07-05T21:55:51.215Z,2.40
2018-07-05T21:58:31.290Z,2.50
2018-07-05T22:01:11.583Z,2.63
2018-07-05T22:03:51.615Z,2.60
2018-07-05T22:06:31.887Z,2.60
2018-07-05T22:09:12.015Z,2.80
2018-07-05T22:11:52.858Z,2.60
2018-07-05T22:14:33.034Z,2.70
2018-07-05T22:17:13.209Z,2.57
2018-07-05T22:20:10.353Z,2.50
2018-07-05T22:23:09.306Z,2.53
2018-07-05T22:29:11.262Z,3.30
2018-07-05T22:31:52.047Z,2.83
2018-07-05T22:34:32.330Z,2.93
2018-07-05T22:37:12.291Z,2.60
2018-07-05T22:39:53.291Z,2.80
2018-07-05T22:42:33.477Z,2.77
2018-07-05T22:45:13.776Z,2.80
2018-07-05T22:47:53.727Z,2.67
2018-07-05T22:50:33.803Z,2.90
2018-07-05T22:53:13.892Z,3.10
2018-07-05T22:55:54.218Z,2.80
2018-07-05T22:58:35.152Z,2.60
2018-07-05T23:01:15.274Z,3.00
2018-07-05T23:03:55.399Z,2.43
2018-07-05T23:06:35.582Z,2.80
2018-07-05T23:09:15.703Z,2.80
2018-07-05T23:11:56.698Z,3.00
2018-07-05T23:14:36.869Z,2.70
2018-07-05T23:17:17.088Z,2.73
2018-07-05T23:19:57.218Z,2.80
2018-07-05T23:22:37.297Z,2.97
2018-07-05T23:25:18.253Z,2.70
2018-07-05T23:27:58.294Z,3.00
2018-07-05T23:30:38.471Z,2.93
2018-07-05T23:33:19.382Z,2.60
2018-07-05T23:35:59.595Z,2.87
2018-07-05T23:38:40.501Z,2.70
2018-07-05T23:41:20.710Z,3.00
2018-07-05T23:44:00.836Z,3.03
2018-07-05T23:46:40.834Z,2.87
2018-07-05T23:49:21.798Z,2.83
2018-07-05T23:52:02.619Z,2.67
2018-07-05T23:54:42.909Z,2.90
2018-07-05T23:57:22.951Z,2.60
